sensor_id;sensor_type;location;lat;lon;timestamp;P1;durP1;ratioP1;P2;durP2;ratioP2
52564;SDS011;38460;53.106;7.004;2024-03-25T00:00:14;13.52;;;2.80;;
52564;SDS011;38460;53.106;7.004;2024-03-25T00:02:40;6.38;;;2.25;;
52564;SDS011;38460;53.106;7.004;2024-03-25T00:05:07;8.75;;;2.47;;
52564;SDS011;38460;53.106;7.004;2024-03-25T00:07:37;10.65;;;2.95;;
52564;SDS011;38460;53.106;7.004;2024-03-25T00:10:03;14.25;;;2.83;;
52564;SDS011;38460;53.106;7.004;2024-03-25T00:12:31;9.32;;;3.20;;
52564;SDS011;38460;53.106;7.004;2024-03-25T00:14:57;9.32;;;3.10;;
52564;SDS011;38460;53.106;7.004;2024-03-25T00:17:23;12.57;;;3.45;;
52564;SDS011;38460;53.106;7.004;2024-03-25T00:19:49;13.93;;;4.22;;
52564;SDS011;38460;53.106;7.004;2024-03-25T00:22:18;10.40;;;3.55;;
52564;SDS011;38460;53.106;7.004;2024-03-25T00:24:45;12.57;;;3.30;;
52564;SDS011;38460;53.106;7.004;2024-03-25T00:27:11;9.07;;;2.50;;
52564;SDS011;38460;53.106;7.004;2024-03-25T00:29:38;7.05;;;2.45;;
52564;SDS011;38460;53.106;7.004;2024-03-25T00:32:04;12.35;;;3.08;;
52564;SDS011;38460;53.106;7.004;2024-03-25T00:34:30;9.40;;;2.95;;
52564;SDS011;38460;53.106;7.004;2024-03-25T00:36:57;10.73;;;2.88;;
52564;SDS011;38460;53.106;7.004;2024-03-25T00:39:23;7.18;;;2.55;;
52564;SDS011;38460;53.106;7.004;2024-03-25T00:41:49;17.10;;;2.63;;
52564;SDS011;38460;53.106;7.004;2024-03-25T00:44:15;8.02;;;2.92;;
52564;SDS011;38460;53.106;7.004;2024-03-25T00:46:41;12.05;;;2.92;;
52564;SDS011;38460;53.106;7.004;2024-03-25T00:49:07;6.05;;;2.13;;
52564;SDS011;38460;53.106;7.004;2024-03-25T00:51:33;10.65;;;3.28;;
52564;SDS011;38460;53.106;7.004;2024-03-25T00:53:59;10.32;;;3.53;;
52564;SDS011;38460;53.106;7.004;2024-03-25T00:56:25;13.25;;;2.78;;
52564;SDS011;38460;53.106;7.004;2024-03-25T00:58:51;13.05;;;3.20;;
52564;SDS011;38460;53.106;7.004;2024-03-25T01:01:16;8.32;;;2.92;;
52564;SDS011;38460;53.106;7.004;2024-03-25T01:03:42;11.45;;;3.10;;
52564;SDS011;38460;53.106;7.004;2024-03-25T01:06:08;8.10;;;3.00;;
52564;SDS011;38460;53.106;7.004;2024-03-25T01:08:34;5.90;;;2.58;;
52564;SDS011;38460;53.106;7.004;2024-03-25T01:11:00;8.98;;;2.30;;
52564;SDS011;38460;53.106;7.004;2024-03-25T01:13:25;11.18;;;3.75;;
52564;SDS011;38460;53.106;7.004;2024-03-25T01:15:51;13.20;;;3.65;;
52564;SDS011;38460;53.106;7.004;2024-03-25T01:18:17;11.98;;;3.53;;
52564;SDS011;38460;53.106;7.004;2024-03-25T01:20:43;11.60;;;3.42;;
52564;SDS011;38460;53.106;7.004;2024-03-25T01:23:12;12.80;;;3.78;;
52564;SDS011;38460;53.106;7.004;2024-03-25T01:25:37;8.75;;;2.45;;
52564;SDS011;38460;53.106;7.004;2024-03-25T01:28:03;12.20;;;3.20;;
52564;SDS011;38460;53.106;7.004;2024-03-25T01:30:29;10.63;;;3.10;;
52564;SDS011;38460;53.106;7.004;2024-03-25T01:32:55;11.65;;;3.70;;
52564;SDS011;38460;53.106;7.004;2024-03-25T01:35:21;11.27;;;2.50;;
52564;SDS011;38460;53.106;7.004;2024-03-25T01:37:47;8.77;;;3.30;;
52564;SDS011;38460;53.106;7.004;2024-03-25T01:40:14;9.55;;;3.20;;
52564;SDS011;38460;53.106;7.004;2024-03-25T01:42:40;13.80;;;2.97;;
52564;SDS011;38460;53.106;7.004;2024-03-25T01:45:06;11.18;;;3.60;;
52564;SDS011;38460;53.106;7.004;2024-03-25T01:47:35;8.38;;;3.30;;
52564;SDS011;38460;53.106;7.004;2024-03-25T01:50:03;8.43;;;2.67;;
52564;SDS011;38460;53.106;7.004;2024-03-25T01:52:29;13.27;;;3.47;;
52564;SDS011;38460;53.106;7.004;2024-03-25T01:54:55;13.68;;;3.50;;
52564;SDS011;38460;53.106;7.004;2024-03-25T01:57:21;10.20;;;3.55;;
52564;SDS011;38460;53.106;7.004;2024-03-25T01:59:47;12.63;;;3.10;;
52564;SDS011;38460;53.106;7.004;2024-03-25T02:02:14;10.93;;;2.70;;
52564;SDS011;38460;53.106;7.004;2024-03-25T02:04:40;12.35;;;3.35;;
52564;SDS011;38460;53.106;7.004;2024-03-25T02:07:07;8.27;;;3.60;;
52564;SDS011;38460;53.106;7.004;2024-03-25T02:09:33;11.38;;;3.10;;
52564;SDS011;38460;53.106;7.004;2024-03-25T02:12:01;10.95;;;3.58;;
52564;SDS011;38460;53.106;7.004;2024-03-25T02:14:27;14.90;;;4.47;;
52564;SDS011;38460;53.106;7.004;2024-03-25T02:16:53;9.35;;;2.65;;
52564;SDS011;38460;53.106;7.004;2024-03-25T02:19:19;9.32;;;2.33;;
52564;SDS011;38460;53.106;7.004;2024-03-25T02:21:47;8.93;;;3.45;;
52564;SDS011;38460;53.106;7.004;2024-03-25T02:24:12;13.23;;;2.80;;
52564;SDS011;38460;53.106;7.004;2024-03-25T02:26:40;12.57;;;3.47;;
52564;SDS011;38460;53.106;7.004;2024-03-25T02:29:09;10.45;;;4.32;;
52564;SDS011;38460;53.106;7.004;2024-03-25T02:31:35;16.85;;;3.03;;
52564;SDS011;38460;53.106;7.004;2024-03-25T02:34:00;9.57;;;2.90;;
52564;SDS011;38460;53.106;7.004;2024-03-25T02:36:26;12.00;;;3.75;;
52564;SDS011;38460;53.106;7.004;2024-03-25T02:38:52;9.45;;;3.17;;
52564;SDS011;38460;53.106;7.004;2024-03-25T02:41:18;16.02;;;3.38;;
52564;SDS011;38460;53.106;7.004;2024-03-25T02:43:44;9.55;;;3.10;;
52564;SDS011;38460;53.106;7.004;2024-03-25T02:46:10;6.07;;;2.75;;
52564;SDS011;38460;53.106;7.004;2024-03-25T02:48:37;11.07;;;2.75;;
52564;SDS011;38460;53.106;7.004;2024-03-25T02:51:02;10.38;;;3.42;;
52564;SDS011;38460;53.106;7.004;2024-03-25T02:53:28;11.52;;;3.55;;
52564;SDS011;38460;53.106;7.004;2024-03-25T02:55:54;9.23;;;3.40;;
52564;SDS011;38460;53.106;7.004;2024-03-25T02:58:19;15.57;;;3.70;;
52564;SDS011;38460;53.106;7.004;2024-03-25T03:00:45;10.20;;;3.22;;
52564;SDS011;38460;53.106;7.004;2024-03-25T03:03:11;11.75;;;4.13;;
52564;SDS011;38460;53.106;7.004;2024-03-25T03:05:36;10.00;;;3.20;;
52564;SDS011;38460;53.106;7.004;2024-03-25T03:08:02;11.77;;;3.13;;
52564;SDS011;38460;53.106;7.004;2024-03-25T03:10:28;10.07;;;3.15;;
52564;SDS011;38460;53.106;7.004;2024-03-25T03:12:56;12.93;;;3.40;;
52564;SDS011;38460;53.106;7.004;2024-03-25T03:15:22;11.13;;;3.38;;
52564;SDS011;38460;53.106;7.004;2024-03-25T03:17:48;11.50;;;2.75;;
52564;SDS011;38460;53.106;7.004;2024-03-25T03:20:14;12.60;;;3.85;;
52564;SDS011;38460;53.106;7.004;2024-03-25T03:22:39;17.70;;;4.82;;
52564;SDS011;38460;53.106;7.004;2024-03-25T03:25:05;10.73;;;3.92;;
52564;SDS011;38460;53.106;7.004;2024-03-25T03:27:31;10.02;;;3.03;;
52564;SDS011;38460;53.106;7.004;2024-03-25T03:29:57;9.48;;;3.00;;
52564;SDS011;38460;53.106;7.004;2024-03-25T03:32:23;14.25;;;3.40;;
52564;SDS011;38460;53.106;7.004;2024-03-25T03:34:49;11.15;;;4.00;;
52564;SDS011;38460;53.106;7.004;2024-03-25T03:37:14;11.98;;;3.05;;
52564;SDS011;38460;53.106;7.004;2024-03-25T03:39:40;9.48;;;2.50;;
52564;SDS011;38460;53.106;7.004;2024-03-25T03:42:06;10.98;;;2.47;;
52564;SDS011;38460;53.106;7.004;2024-03-25T03:44:32;11.18;;;2.97;;
52564;SDS011;38460;53.106;7.004;2024-03-25T03:46:57;8.10;;;2.53;;
52564;SDS011;38460;53.106;7.004;2024-03-25T03:49:23;14.77;;;3.08;;
52564;SDS011;38460;53.106;7.004;2024-03-25T03:51:49;11.98;;;3.25;;
52564;SDS011;38460;53.106;7.004;2024-03-25T03:54:14;7.90;;;3.38;;
52564;SDS011;38460;53.106;7.004;2024-03-25T03:56:40;10.57;;;2.45;;
52564;SDS011;38460;53.106;7.004;2024-03-25T03:59:06;14.48;;;3.22;;
52564;SDS011;38460;53.106;7.004;2024-03-25T04:01:31;7.75;;;2.63;;
52564;SDS011;38460;53.106;7.004;2024-03-25T04:03:58;8.48;;;3.25;;
52564;SDS011;38460;53.106;7.004;2024-03-25T04:06:24;11.85;;;2.85;;
52564;SDS011;38460;53.106;7.004;2024-03-25T04:08:50;11.10;;;2.58;;
52564;SDS011;38460;53.106;7.004;2024-03-25T04:11:15;11.48;;;2.50;;
52564;SDS011;38460;53.106;7.004;2024-03-25T04:13:41;9.00;;;2.70;;
52564;SDS011;38460;53.106;7.004;2024-03-25T04:16:08;10.88;;;2.83;;
52564;SDS011;38460;53.106;7.004;2024-03-25T04:18:34;9.60;;;2.20;;
52564;SDS011;38460;53.106;7.004;2024-03-25T04:21:00;6.72;;;2.78;;
52564;SDS011;38460;53.106;7.004;2024-03-25T04:23:26;10.02;;;2.72;;
52564;SDS011;38460;53.106;7.004;2024-03-25T04:25:51;12.13;;;2.72;;
52564;SDS011;38460;53.106;7.004;2024-03-25T04:28:19;9.73;;;3.08;;
52564;SDS011;38460;53.106;7.004;2024-03-25T04:30:54;8.98;;;3.05;;
52564;SDS011;38460;53.106;7.004;2024-03-25T04:33:20;9.00;;;3.28;;
52564;SDS011;38460;53.106;7.004;2024-03-25T04:35:46;11.93;;;3.33;;
52564;SDS011;38460;53.106;7.004;2024-03-25T04:38:12;9.05;;;2.72;;
52564;SDS011;38460;53.106;7.004;2024-03-25T04:40:40;7.95;;;2.80;;
52564;SDS011;38460;53.106;7.004;2024-03-25T04:43:06;11.50;;;3.40;;
52564;SDS011;38460;53.106;7.004;2024-03-25T04:45:32;6.47;;;2.42;;
52564;SDS011;38460;53.106;7.004;2024-03-25T04:47:57;9.18;;;2.53;;
52564;SDS011;38460;53.106;7.004;2024-03-25T04:50:23;13.02;;;2.70;;
52564;SDS011;38460;53.106;7.004;2024-03-25T04:52:49;8.40;;;2.78;;
52564;SDS011;38460;53.106;7.004;2024-03-25T04:55:15;7.93;;;2.00;;
52564;SDS011;38460;53.106;7.004;2024-03-25T04:57:40;9.43;;;2.42;;
52564;SDS011;38460;53.106;7.004;2024-03-25T05:00:06;14.55;;;3.38;;
52564;SDS011;38460;53.106;7.004;2024-03-25T05:02:35;9.32;;;2.53;;
52564;SDS011;38460;53.106;7.004;2024-03-25T05:05:02;8.27;;;2.53;;
52564;SDS011;38460;53.106;7.004;2024-03-25T05:07:28;8.40;;;2.38;;
52564;SDS011;38460;53.106;7.004;2024-03-25T05:09:54;8.95;;;2.78;;
52564;SDS011;38460;53.106;7.004;2024-03-25T05:12:21;9.48;;;3.25;;
52564;SDS011;38460;53.106;7.004;2024-03-25T05:14:46;9.25;;;2.75;;
52564;SDS011;38460;53.106;7.004;2024-03-25T05:17:12;9.52;;;3.00;;
52564;SDS011;38460;53.106;7.004;2024-03-25T05:19:38;9.02;;;2.80;;
52564;SDS011;38460;53.106;7.004;2024-03-25T05:22:04;10.05;;;2.97;;
52564;SDS011;38460;53.106;7.004;2024-03-25T05:24:29;11.93;;;2.72;;
52564;SDS011;38460;53.106;7.004;2024-03-25T05:26:55;8.32;;;2.60;;
52564;SDS011;38460;53.106;7.004;2024-03-25T05:29:21;8.50;;;3.13;;
52564;SDS011;38460;53.106;7.004;2024-03-25T05:31:57;8.15;;;2.90;;
52564;SDS011;38460;53.106;7.004;2024-03-25T05:34:27;10.82;;;2.80;;
52564;SDS011;38460;53.106;7.004;2024-03-25T05:36:53;10.95;;;3.05;;
52564;SDS011;38460;53.106;7.004;2024-03-25T05:39:19;7.45;;;2.83;;
52564;SDS011;38460;53.106;7.004;2024-03-25T05:41:46;10.95;;;3.20;;
52564;SDS011;38460;53.106;7.004;2024-03-25T05:44:11;17.45;;;5.38;;
52564;SDS011;38460;53.106;7.004;2024-03-25T05:46:38;10.90;;;2.92;;
52564;SDS011;38460;53.106;7.004;2024-03-25T05:49:04;13.38;;;2.95;;
52564;SDS011;38460;53.106;7.004;2024-03-25T05:51:30;12.65;;;3.33;;
52564;SDS011;38460;53.106;7.004;2024-03-25T05:53:58;8.18;;;2.55;;
52564;SDS011;38460;53.106;7.004;2024-03-25T05:56:24;14.35;;;3.17;;
52564;SDS011;38460;53.106;7.004;2024-03-25T05:58:56;9.93;;;2.70;;
52564;SDS011;38460;53.106;7.004;2024-03-25T06:01:22;7.57;;;2.85;;
52564;SDS011;38460;53.106;7.004;2024-03-25T06:03:48;8.52;;;3.65;;
52564;SDS011;38460;53.106;7.004;2024-03-25T06:06:14;11.48;;;2.85;;
52564;SDS011;38460;53.106;7.004;2024-03-25T06:08:39;12.85;;;3.75;;
52564;SDS011;38460;53.106;7.004;2024-03-25T06:11:05;9.85;;;3.75;;
52564;SDS011;38460;53.106;7.004;2024-03-25T06:13:31;11.40;;;3.28;;
52564;SDS011;38460;53.106;7.004;2024-03-25T06:15:58;7.65;;;2.58;;
52564;SDS011;38460;53.106;7.004;2024-03-25T06:18:24;7.57;;;2.67;;
52564;SDS011;38460;53.106;7.004;2024-03-25T06:20:50;9.82;;;2.40;;
52564;SDS011;38460;53.106;7.004;2024-03-25T06:23:25;8.60;;;2.50;;
52564;SDS011;38460;53.106;7.004;2024-03-25T06:25:53;10.77;;;3.03;;
52564;SDS011;38460;53.106;7.004;2024-03-25T06:28:20;7.63;;;2.95;;
52564;SDS011;38460;53.106;7.004;2024-03-25T06:30:47;8.65;;;3.15;;
52564;SDS011;38460;53.106;7.004;2024-03-25T06:33:32;8.00;;;3.05;;
52564;SDS011;38460;53.106;7.004;2024-03-25T06:36:17;10.18;;;3.03;;
52564;SDS011;38460;53.106;7.004;2024-03-25T06:38:43;12.40;;;3.17;;
52564;SDS011;38460;53.106;7.004;2024-03-25T06:41:09;7.47;;;2.67;;
52564;SDS011;38460;53.106;7.004;2024-03-25T06:43:35;6.85;;;2.58;;
52564;SDS011;38460;53.106;7.004;2024-03-25T06:46:03;10.10;;;3.45;;
52564;SDS011;38460;53.106;7.004;2024-03-25T06:48:29;9.40;;;3.05;;
52564;SDS011;38460;53.106;7.004;2024-03-25T06:50:58;7.75;;;2.78;;
52564;SDS011;38460;53.106;7.004;2024-03-25T06:53:24;10.10;;;3.00;;
52564;SDS011;38460;53.106;7.004;2024-03-25T06:55:59;13.57;;;3.72;;
52564;SDS011;38460;53.106;7.004;2024-03-25T06:58:26;10.15;;;3.10;;
52564;SDS011;38460;53.106;7.004;2024-03-25T07:00:53;14.95;;;3.97;;
52564;SDS011;38460;53.106;7.004;2024-03-25T07:03:20;8.45;;;2.80;;
52564;SDS011;38460;53.106;7.004;2024-03-25T07:05:47;11.45;;;2.80;;
52564;SDS011;38460;53.106;7.004;2024-03-25T07:08:14;11.07;;;3.10;;
52564;SDS011;38460;53.106;7.004;2024-03-25T07:10:43;11.88;;;3.47;;
52564;SDS011;38460;53.106;7.004;2024-03-25T07:13:09;12.60;;;2.90;;
52564;SDS011;38460;53.106;7.004;2024-03-25T07:15:36;9.73;;;3.33;;
52564;SDS011;38460;53.106;7.004;2024-03-25T07:18:02;9.50;;;2.88;;
52564;SDS011;38460;53.106;7.004;2024-03-25T07:20:28;9.85;;;3.25;;
52564;SDS011;38460;53.106;7.004;2024-03-25T07:22:54;9.95;;;3.47;;
52564;SDS011;38460;53.106;7.004;2024-03-25T07:25:21;7.35;;;2.83;;
52564;SDS011;38460;53.106;7.004;2024-03-25T07:27:47;12.60;;;3.38;;
52564;SDS011;38460;53.106;7.004;2024-03-25T07:30:14;12.13;;;3.05;;
52564;SDS011;38460;53.106;7.004;2024-03-25T07:32:40;8.98;;;2.95;;
52564;SDS011;38460;53.106;7.004;2024-03-25T07:35:06;10.02;;;2.88;;
52564;SDS011;38460;53.106;7.004;2024-03-25T07:37:33;9.38;;;2.90;;
52564;SDS011;38460;53.106;7.004;2024-03-25T07:39:59;10.38;;;2.97;;
52564;SDS011;38460;53.106;7.004;2024-03-25T07:42:25;14.90;;;3.10;;
52564;SDS011;38460;53.106;7.004;2024-03-25T07:44:51;9.90;;;2.60;;
52564;SDS011;38460;53.106;7.004;2024-03-25T07:47:17;11.63;;;3.17;;
52564;SDS011;38460;53.106;7.004;2024-03-25T07:49:44;8.68;;;2.58;;
52564;SDS011;38460;53.106;7.004;2024-03-25T07:52:09;8.45;;;2.47;;
52564;SDS011;38460;53.106;7.004;2024-03-25T07:54:35;8.88;;;2.70;;
52564;SDS011;38460;53.106;7.004;2024-03-25T07:57:03;7.35;;;2.67;;
52564;SDS011;38460;53.106;7.004;2024-03-25T07:59:29;7.60;;;2.70;;
52564;SDS011;38460;53.106;7.004;2024-03-25T08:01:55;7.03;;;2.38;;
52564;SDS011;38460;53.106;7.004;2024-03-25T08:04:20;11.32;;;2.38;;
52564;SDS011;38460;53.106;7.004;2024-03-25T08:06:46;8.00;;;2.90;;
52564;SDS011;38460;53.106;7.004;2024-03-25T08:09:12;16.95;;;2.53;;
52564;SDS011;38460;53.106;7.004;2024-03-25T08:11:40;6.28;;;2.10;;
52564;SDS011;38460;53.106;7.004;2024-03-25T08:14:08;8.73;;;2.45;;
52564;SDS011;38460;53.106;7.004;2024-03-25T08:16:35;13.43;;;3.10;;
52564;SDS011;38460;53.106;7.004;2024-03-25T08:19:01;10.85;;;2.88;;
52564;SDS011;38460;53.106;7.004;2024-03-25T08:21:26;7.03;;;2.83;;
52564;SDS011;38460;53.106;7.004;2024-03-25T08:23:52;7.43;;;2.00;;
52564;SDS011;38460;53.106;7.004;2024-03-25T08:26:18;5.60;;;1.98;;
52564;SDS011;38460;53.106;7.004;2024-03-25T08:28:44;12.52;;;2.63;;
52564;SDS011;38460;53.106;7.004;2024-03-25T08:31:10;8.45;;;2.88;;
52564;SDS011;38460;53.106;7.004;2024-03-25T08:33:36;10.27;;;2.30;;
52564;SDS011;38460;53.106;7.004;2024-03-25T08:36:02;9.02;;;2.50;;
52564;SDS011;38460;53.106;7.004;2024-03-25T08:38:28;9.50;;;2.22;;
52564;SDS011;38460;53.106;7.004;2024-03-25T08:40:54;7.85;;;2.85;;
52564;SDS011;38460;53.106;7.004;2024-03-25T08:43:20;6.10;;;2.22;;
52564;SDS011;38460;53.106;7.004;2024-03-25T08:45:45;10.55;;;3.20;;
52564;SDS011;38460;53.106;7.004;2024-03-25T08:48:11;6.88;;;2.75;;
52564;SDS011;38460;53.106;7.004;2024-03-25T08:50:37;8.82;;;3.83;;
52564;SDS011;38460;53.106;7.004;2024-03-25T08:53:03;6.57;;;2.55;;
52564;SDS011;38460;53.106;7.004;2024-03-25T08:55:29;8.93;;;2.40;;
52564;SDS011;38460;53.106;7.004;2024-03-25T08:57:56;7.13;;;2.50;;
52564;SDS011;38460;53.106;7.004;2024-03-25T09:00:25;8.73;;;2.22;;
52564;SDS011;38460;53.106;7.004;2024-03-25T09:02:52;13.30;;;2.50;;
52564;SDS011;38460;53.106;7.004;2024-03-25T09:05:21;9.82;;;2.58;;
52564;SDS011;38460;53.106;7.004;2024-03-25T09:07:50;6.28;;;2.85;;
52564;SDS011;38460;53.106;7.004;2024-03-25T09:10:20;6.18;;;2.40;;
52564;SDS011;38460;53.106;7.004;2024-03-25T09:13:05;6.45;;;2.20;;
52564;SDS011;38460;53.106;7.004;2024-03-25T09:15:30;5.60;;;2.03;;
52564;SDS011;38460;53.106;7.004;2024-03-25T09:18:00;7.47;;;2.13;;
52564;SDS011;38460;53.106;7.004;2024-03-25T09:20:27;10.40;;;2.30;;
52564;SDS011;38460;53.106;7.004;2024-03-25T09:22:52;7.25;;;2.10;;
52564;SDS011;38460;53.106;7.004;2024-03-25T09:25:18;5.90;;;2.10;;
52564;SDS011;38460;53.106;7.004;2024-03-25T09:27:50;6.07;;;1.67;;
52564;SDS011;38460;53.106;7.004;2024-03-25T09:30:16;10.27;;;2.67;;
52564;SDS011;38460;53.106;7.004;2024-03-25T09:32:44;8.27;;;2.30;;
52564;SDS011;38460;53.106;7.004;2024-03-25T09:35:10;4.07;;;1.67;;
52564;SDS011;38460;53.106;7.004;2024-03-25T09:37:37;9.07;;;2.05;;
52564;SDS011;38460;53.106;7.004;2024-03-25T09:40:03;6.82;;;2.22;;
52564;SDS011;38460;53.106;7.004;2024-03-25T09:42:40;5.32;;;1.90;;
52564;SDS011;38460;53.106;7.004;2024-03-25T09:45:12;4.93;;;1.60;;
52564;SDS011;38460;53.106;7.004;2024-03-25T09:47:41;7.47;;;1.95;;
52564;SDS011;38460;53.106;7.004;2024-03-25T09:50:12;4.30;;;1.25;;
52564;SDS011;38460;53.106;7.004;2024-03-25T09:52:41;4.85;;;1.63;;
52564;SDS011;38460;53.106;7.004;2024-03-25T09:55:07;6.47;;;1.40;;
52564;SDS011;38460;53.106;7.004;2024-03-25T09:57:33;4.07;;;1.42;;
52564;SDS011;38460;53.106;7.004;2024-03-25T09:59:59;4.97;;;2.05;;
52564;SDS011;38460;53.106;7.004;2024-03-25T10:02:27;7.35;;;1.70;;
52564;SDS011;38460;53.106;7.004;2024-03-25T10:04:54;5.30;;;1.90;;
52564;SDS011;38460;53.106;7.004;2024-03-25T10:07:23;4.90;;;1.45;;
52564;SDS011;38460;53.106;7.004;2024-03-25T10:09:50;4.85;;;1.38;;
52564;SDS011;38460;53.106;7.004;2024-03-25T10:12:16;5.80;;;1.52;;
52564;SDS011;38460;53.106;7.004;2024-03-25T10:14:42;9.15;;;2.22;;
52564;SDS011;38460;53.106;7.004;2024-03-25T10:17:08;6.20;;;2.08;;
52564;SDS011;38460;53.106;7.004;2024-03-25T10:19:34;4.85;;;1.92;;
52564;SDS011;38460;53.106;7.004;2024-03-25T10:22:03;6.90;;;1.98;;
52564;SDS011;38460;53.106;7.004;2024-03-25T10:24:39;5.50;;;1.95;;
52564;SDS011;38460;53.106;7.004;2024-03-25T10:27:09;6.90;;;1.73;;
52564;SDS011;38460;53.106;7.004;2024-03-25T10:29:37;7.20;;;2.20;;
52564;SDS011;38460;53.106;7.004;2024-03-25T10:32:02;6.10;;;1.67;;
52564;SDS011;38460;53.106;7.004;2024-03-25T10:34:29;4.80;;;1.50;;
52564;SDS011;38460;53.106;7.004;2024-03-25T10:36:56;7.07;;;2.00;;
52564;SDS011;38460;53.106;7.004;2024-03-25T10:39:26;4.88;;;1.70;;
52564;SDS011;38460;53.106;7.004;2024-03-25T10:41:56;5.18;;;1.90;;
52564;SDS011;38460;53.106;7.004;2024-03-25T10:44:23;3.80;;;1.80;;
52564;SDS011;38460;53.106;7.004;2024-03-25T10:46:57;5.68;;;1.60;;
52564;SDS011;38460;53.106;7.004;2024-03-25T10:49:41;5.80;;;1.92;;
52564;SDS011;38460;53.106;7.004;2024-03-25T10:52:13;4.05;;;1.92;;
52564;SDS011;38460;53.106;7.004;2024-03-25T10:54:40;5.38;;;2.25;;
52564;SDS011;38460;53.106;7.004;2024-03-25T10:57:08;3.88;;;1.48;;
52564;SDS011;38460;53.106;7.004;2024-03-25T10:59:35;4.35;;;2.25;;
52564;SDS011;38460;53.106;7.004;2024-03-25T11:02:09;6.50;;;1.73;;
52564;SDS011;38460;53.106;7.004;2024-03-25T11:04:36;13.45;;;3.08;;
52564;SDS011;38460;53.106;7.004;2024-03-25T11:07:12;7.90;;;1.52;;
52564;SDS011;38460;53.106;7.004;2024-03-25T11:09:39;4.72;;;1.92;;
52564;SDS011;38460;53.106;7.004;2024-03-25T11:12:06;8.73;;;1.75;;
52564;SDS011;38460;53.106;7.004;2024-03-25T11:14:35;5.50;;;1.40;;
52564;SDS011;38460;53.106;7.004;2024-03-25T11:17:01;3.92;;;1.60;;
52564;SDS011;38460;53.106;7.004;2024-03-25T11:19:27;3.70;;;1.30;;
52564;SDS011;38460;53.106;7.004;2024-03-25T11:21:55;6.88;;;1.73;;
52564;SDS011;38460;53.106;7.004;2024-03-25T11:24:31;6.20;;;1.85;;
52564;SDS011;38460;53.106;7.004;2024-03-25T11:26:57;5.82;;;1.80;;
52564;SDS011;38460;53.106;7.004;2024-03-25T11:29:25;4.97;;;1.58;;
52564;SDS011;38460;53.106;7.004;2024-03-25T11:31:52;7.38;;;1.80;;
52564;SDS011;38460;53.106;7.004;2024-03-25T11:34:19;6.85;;;2.28;;
52564;SDS011;38460;53.106;7.004;2024-03-25T11:36:45;11.25;;;2.38;;
52564;SDS011;38460;53.106;7.004;2024-03-25T11:39:14;7.38;;;1.73;;
52564;SDS011;38460;53.106;7.004;2024-03-25T11:41:41;4.20;;;1.17;;
52564;SDS011;38460;53.106;7.004;2024-03-25T11:44:08;4.32;;;1.40;;
52564;SDS011;38460;53.106;7.004;2024-03-25T11:46:37;7.72;;;1.70;;
52564;SDS011;38460;53.106;7.004;2024-03-25T11:49:07;4.53;;;1.67;;
52564;SDS011;38460;53.106;7.004;2024-03-25T11:51:37;6.70;;;1.80;;
52564;SDS011;38460;53.106;7.004;2024-03-25T11:54:06;5.53;;;1.85;;
52564;SDS011;38460;53.106;7.004;2024-03-25T11:56:36;4.82;;;1.60;;
52564;SDS011;38460;53.106;7.004;2024-03-25T11:59:05;7.50;;;2.17;;
52564;SDS011;38460;53.106;7.004;2024-03-25T12:01:32;5.72;;;1.50;;
52564;SDS011;38460;53.106;7.004;2024-03-25T12:04:08;6.50;;;1.83;;
52564;SDS011;38460;53.106;7.004;2024-03-25T12:06:35;13.52;;;1.92;;
52564;SDS011;38460;53.106;7.004;2024-03-25T12:09:01;6.35;;;1.63;;
52564;SDS011;38460;53.106;7.004;2024-03-25T12:11:45;4.75;;;1.85;;
52564;SDS011;38460;53.106;7.004;2024-03-25T12:14:11;4.30;;;1.50;;
52564;SDS011;38460;53.106;7.004;2024-03-25T12:16:37;5.90;;;1.33;;
52564;SDS011;38460;53.106;7.004;2024-03-25T12:19:03;4.43;;;1.67;;
52564;SDS011;38460;53.106;7.004;2024-03-25T12:21:30;7.65;;;1.60;;
52564;SDS011;38460;53.106;7.004;2024-03-25T12:23:56;3.47;;;1.48;;
52564;SDS011;38460;53.106;7.004;2024-03-25T12:26:23;4.28;;;1.90;;
52564;SDS011;38460;53.106;7.004;2024-03-25T12:28:49;3.65;;;1.50;;
52564;SDS011;38460;53.106;7.004;2024-03-25T12:31:15;4.43;;;1.45;;
52564;SDS011;38460;53.106;7.004;2024-03-25T12:33:41;5.60;;;2.25;;
52564;SDS011;38460;53.106;7.004;2024-03-25T12:36:08;5.63;;;1.65;;
52564;SDS011;38460;53.106;7.004;2024-03-25T12:38:36;2.88;;;1.17;;
52564;SDS011;38460;53.106;7.004;2024-03-25T12:41:09;5.00;;;1.33;;
52564;SDS011;38460;53.106;7.004;2024-03-25T12:43:36;6.85;;;1.58;;
52564;SDS011;38460;53.106;7.004;2024-03-25T12:46:07;4.20;;;1.38;;
52564;SDS011;38460;53.106;7.004;2024-03-25T12:48:36;6.40;;;1.63;;
52564;SDS011;38460;53.106;7.004;2024-03-25T12:51:02;5.70;;;2.00;;
52564;SDS011;38460;53.106;7.004;2024-03-25T12:53:28;6.07;;;1.45;;
52564;SDS011;38460;53.106;7.004;2024-03-25T12:55:54;4.35;;;1.45;;
52564;SDS011;38460;53.106;7.004;2024-03-25T12:58:19;4.80;;;1.55;;
52564;SDS011;38460;53.106;7.004;2024-03-25T13:00:45;5.95;;;2.10;;
52564;SDS011;38460;53.106;7.004;2024-03-25T13:03:11;7.28;;;1.77;;
52564;SDS011;38460;53.106;7.004;2024-03-25T13:05:42;8.88;;;2.30;;
52564;SDS011;38460;53.106;7.004;2024-03-25T13:08:09;7.45;;;2.13;;
52564;SDS011;38460;53.106;7.004;2024-03-25T13:10:34;6.20;;;1.90;;
52564;SDS011;38460;53.106;7.004;2024-03-25T13:13:01;6.72;;;2.03;;
52564;SDS011;38460;53.106;7.004;2024-03-25T13:15:27;10.02;;;2.55;;
52564;SDS011;38460;53.106;7.004;2024-03-25T13:17:53;9.63;;;2.30;;
52564;SDS011;38460;53.106;7.004;2024-03-25T13:20:19;7.60;;;2.30;;
52564;SDS011;38460;53.106;7.004;2024-03-25T13:22:45;6.97;;;2.50;;
52564;SDS011;38460;53.106;7.004;2024-03-25T13:25:12;7.90;;;2.10;;
52564;SDS011;38460;53.106;7.004;2024-03-25T13:27:37;7.55;;;2.22;;
52564;SDS011;38460;53.106;7.004;2024-03-25T13:30:04;8.52;;;2.20;;
52564;SDS011;38460;53.106;7.004;2024-03-25T13:32:31;5.38;;;1.73;;
52564;SDS011;38460;53.106;7.004;2024-03-25T13:34:56;8.10;;;2.80;;
52564;SDS011;38460;53.106;7.004;2024-03-25T13:37:22;6.28;;;2.17;;
52564;SDS011;38460;53.106;7.004;2024-03-25T13:39:48;6.95;;;2.17;;
52564;SDS011;38460;53.106;7.004;2024-03-25T13:42:16;5.05;;;2.03;;
52564;SDS011;38460;53.106;7.004;2024-03-25T13:44:42;7.90;;;2.35;;
52564;SDS011;38460;53.106;7.004;2024-03-25T13:47:08;7.35;;;2.40;;
52564;SDS011;38460;53.106;7.004;2024-03-25T13:49:34;5.85;;;1.98;;
52564;SDS011;38460;53.106;7.004;2024-03-25T13:51:59;7.28;;;2.25;;
52564;SDS011;38460;53.106;7.004;2024-03-25T13:54:29;8.48;;;2.38;;
52564;SDS011;38460;53.106;7.004;2024-03-25T13:56:56;7.32;;;2.45;;
52564;SDS011;38460;53.106;7.004;2024-03-25T13:59:22;5.75;;;1.98;;
52564;SDS011;38460;53.106;7.004;2024-03-25T14:01:48;8.50;;;2.05;;
52564;SDS011;38460;53.106;7.004;2024-03-25T14:04:13;6.60;;;2.03;;
52564;SDS011;38460;53.106;7.004;2024-03-25T14:06:40;9.10;;;1.90;;
52564;SDS011;38460;53.106;7.004;2024-03-25T14:09:06;6.85;;;1.90;;
52564;SDS011;38460;53.106;7.004;2024-03-25T14:11:34;7.50;;;2.03;;
52564;SDS011;38460;53.106;7.004;2024-03-25T14:14:01;9.20;;;2.55;;
52564;SDS011;38460;53.106;7.004;2024-03-25T14:16:30;9.40;;;2.00;;
52564;SDS011;38460;53.106;7.004;2024-03-25T14:18:56;7.80;;;2.20;;
52564;SDS011;38460;53.106;7.004;2024-03-25T14:21:21;6.07;;;2.00;;
52564;SDS011;38460;53.106;7.004;2024-03-25T14:23:47;6.90;;;1.95;;
52564;SDS011;38460;53.106;7.004;2024-03-25T14:26:13;9.00;;;2.25;;
52564;SDS011;38460;53.106;7.004;2024-03-25T14:28:42;6.32;;;1.77;;
52564;SDS011;38460;53.106;7.004;2024-03-25T14:31:07;6.18;;;2.00;;
52564;SDS011;38460;53.106;7.004;2024-03-25T14:33:33;6.13;;;1.88;;
52564;SDS011;38460;53.106;7.004;2024-03-25T14:35:59;6.55;;;1.98;;
52564;SDS011;38460;53.106;7.004;2024-03-25T14:38:25;6.43;;;2.15;;
52564;SDS011;38460;53.106;7.004;2024-03-25T14:40:51;7.57;;;2.50;;